Time;durP1;ratioP1;P1;durP2;ratioP2;P2;SDS_P1;SDS_P2;PMS_P1;PMS_P2;Temp;Humidity;BMP_temperature;BMP_pressure;BME280_temperature;BME280_humidity;BME280_pressure;Samples;Min_cycle;Max_cycle;Signal;HPM_P1;HPM_P2
2022/03/28 07:36:08;;;;;;;;;;;;;;;21.65;31.11;99347.88;5448545;24;19969;-66
2022/03/28 07:38:35;;;;;;;;;;;;;;;21.55;32.09;99352.59;4817138;29;19968;-66
2022/03/28 07:41:04;;;;;;;;;;;;;;;21.61;31.70;99352.88;4842215;29;20405;-66
2022/03/28 07:43:32;;;;;;;;;;;;;;;21.59;31.57;99346.81;4851207;29;19964;-66
2022/03/28 07:45:59;;;;;;;;;;;;;;;21.71;31.74;99350.97;4846557;29;19948;-66
2022/03/28 07:48:27;;;;;;;;;;;;;;;21.51;34.18;99351.09;4846379;29;19944;-67
2022/03/28 07:50:55;;;;;;;;;;;;;;;21.60;32.54;99356.94;4845458;29;19946;-67
2022/03/28 07:53:23;;;;;;;;;;;;;;;21.51;32.46;99348.25;4826320;29;19950;-67
2022/03/28 07:55:50;;;;;;;;;;;;;;;21.28;32.79;99349.22;4827790;29;20336;-67
2022/03/28 07:58:17;;;;;;;;;;;;;;;21.40;32.25;99356.25;4827367;29;20321;-66
2022/03/28 08:00:45;;;;;;;;;;;;;;;21.49;32.63;99353.59;4827633;29;19946;-66
2022/03/28 08:03:12;;;;;;;;;;;;;;;21.24;33.47;99353.41;4834889;29;19951;-67
2022/03/28 08:05:39;;;;;;;;;;;;;;;21.12;33.89;99357.78;4845918;29;20006;-67
2022/03/28 08:08:07;;;;;;;;;;;;;;;21.14;33.71;99357.31;4848614;29;19956;-67
2022/03/28 08:10:34;;;;;;;;;;;;;;;20.94;33.65;99349.63;4839106;29;19955;-66
2022/03/28 08:13:02;;;;;;;;;;;;;;;20.96;33.72;99349.97;4845057;29;19951;-66
2022/03/28 08:15:30;;;;;;;;;;;;;;;20.81;33.85;99348.72;4837705;29;19960;-67
2022/03/28 08:17:58;;;;;;;;;;;;;;;20.79;34.22;99356.88;4827599;29;19953;-67
2022/03/28 08:20:26;;;;;;;;;;;;;;;20.63;34.83;99358.88;4831715;29;19958;-66
2022/03/28 08:22:54;;;;;;;;;;;;;;;20.47;35.66;99358.84;4833336;29;19947;-66
2022/03/28 08:25:22;;;;;;;;;;;;;;;20.55;35.34;99346.88;4831636;29;20041;-66
2022/03/28 08:27:50;;;;;;;;;;;;;;;20.32;35.64;99349.81;4829555;29;19951;-66
2022/03/28 08:30:17;;;;;;;;;;;;;;;20.36;35.26;99349.75;4826266;29;19948;-67
2022/03/28 08:32:47;;;;;;;;;;;;;;;20.34;35.46;99350.19;4827485;29;19957;-67
2022/03/28 08:35:15;;;;;;;;;;;;;;;20.30;35.28;99343.75;4837349;29;20216;-66
2022/03/28 08:37:43;;;;;;;;;;;;;;;20.28;35.70;99344.22;4836692;29;19947;-67
2022/03/28 08:40:12;;;;;;;;;;;;;;;20.05;36.52;99344.25;4854834;29;19978;-66
2022/03/28 08:42:40;;;;;;;;;;;;;;;19.96;36.31;99346.06;4850122;29;19951;-66
2022/03/28 08:45:08;;;;;;;;;;;;;;;19.77;36.94;99349.69;4844866;29;19974;-66
2022/03/28 08:47:38;;;;;;;;;;;;;;;19.76;36.99;99348.09;4845200;29;19949;-66
2022/03/28 08:50:16;;;;;;;;;;;;;;;19.59;37.75;99353.66;4833911;29;19947;-66
2022/03/28 08:52:44;;;;;;;;;;;;;;;19.64;38.47;99352.34;4844655;29;19956;-66
2022/03/28 08:55:12;;;;;;;;;;;;;;;19.47;39.19;99340.09;4844786;29;19946;-66
2022/03/28 08:57:40;;;;;;;;;;;;;;;19.33;40.34;99343.16;4845393;29;20372;-66
2022/03/28 09:00:09;;;;;;;;;;;;;;;18.91;40.50;99341.81;4844561;29;19957;-67
2022/03/28 09:02:36;;;;;;;;;;;;;;;18.50;44.48;99340.41;4843784;29;20276;-67
2022/03/28 09:05:04;;;;;;;;;;;;;;;18.68;44.68;99338.91;4845025;29;19969;-66
2022/03/28 09:07:31;;;;;;;;;;;;;;;18.62;46.24;99346.31;4834821;29;19947;-66
2022/03/28 09:10:00;;;;;;;;;;;;;;;18.47;47.47;99341.25;4843526;29;19960;-66
2022/03/28 09:12:27;;;;;;;;;;;;;;;18.30;50.75;99343.09;4836209;29;19965;-66
2022/03/28 09:14:55;;;;;;;;;;;;;;;18.37;53.48;99340.16;4830636;29;19951;-66
2022/03/28 09:17:23;;;;;;;;;;;;;;;18.36;48.87;99333.69;4830315;29;19953;-66
2022/03/28 09:19:50;;;;;;;;;;;;;;;18.30;49.57;99338.22;4830657;29;19952;-66
2022/03/28 09:22:19;;;;;;;;;;;;;;;18.34;49.33;99336.13;4840633;29;20240;-66
2022/03/28 09:24:47;;;;;;;;;;;;;;;18.34;49.35;99344.63;4830241;29;19975;-66
2022/03/28 09:27:20;;;;;;;;;;;;;;;17.96;51.96;99328.16;4830149;29;20334;-67
2022/03/28 09:29:53;;;;;;;;;;;;;;;18.25;49.35;99332.22;4830535;29;20031;-66
2022/03/28 09:32:24;;;;;;;;;;;;;;;18.39;51.95;99330.00;4829872;29;19947;-66
2022/03/28 09:35:09;;;;;;;;;;;;;;;17.96;52.68;99319.66;4830505;29;19954;-66
2022/03/28 09:37:52;;;;;;;;;;;;;;;18.24;51.09;99319.31;4834935;29;19959;-66
2022/03/28 09:40:23;;;;;;;;;;;;;;;18.05;52.14;99315.09;4854481;29;19972;-66
2022/03/28 09:42:51;;;;;;;;;;;;;;;17.95;49.13;99313.19;4847966;29;19950;-66
2022/03/28 09:45:20;;;;;;;;;;;;;;;18.05;50.38;99315.09;4845317;29;19963;-66
2022/03/28 09:48:01;;;;;;;;;;;;;;;18.24;51.60;99319.31;4840212;29;20234;-66
2022/03/28 09:50:29;;;;;;;;;;;;;;;18.22;50.47;99310.41;4832007;29;19956;-66
2022/03/28 09:53:19;;;;;;;;;;;;;;;18.22;50.64;99311.22;4831721;29;19951;-66
2022/03/28 09:55:51;;;;;;;;;;;;;;;18.29;52.19;99307.50;4829562;29;19955;-66
2022/03/28 09:58:32;;;;;;;;;;;;;;;18.12;53.07;99302.88;4834771;29;20365;-67
2022/03/28 10:01:00;;;;;;;;;;;;;;;18.32;52.44;99296.13;4849224;29;19951;-66
2022/03/28 10:03:32;;;;;;;;;;;;;;;18.26;54.23;99297.03;4849962;29;19949;-66
2022/03/28 10:06:01;;;;;;;;;;;;;;;18.46;52.53;99297.16;4850719;29;19965;-66
2022/03/28 10:08:28;;;;;;;;;;;;;;;18.63;52.00;99296.94;4840211;29;19953;-66
2022/03/28 10:10:59;;;;;;;;;;;;;;;18.59;50.61;99292.53;4841722;29;19950;-66
2022/03/28 10:13:27;;;;;;;;;;;;;;;18.71;50.34;99294.75;4849651;29;20280;-66
2022/03/28 10:15:54;;;;;;;;;;;;;;;18.87;50.36;99287.25;4838354;29;20350;-66
2022/03/28 10:18:21;;;;;;;;;;;;;;;18.88;48.20;99271.81;4858842;29;19961;-66
2022/03/28 10:20:53;;;;;;;;;;;;;;;18.84;46.62;99279.59;4846240;29;19951;-66
2022/03/28 10:23:26;;;;;;;;;;;;;;;18.36;50.29;99270.59;4828918;29;20257;-66
2022/03/28 10:25:55;;;;;;;;;;;;;;;18.63;46.01;99271.44;4829426;29;19966;-66
2022/03/28 10:28:23;;;;;;;;;;;;;;;18.73;45.49;99264.00;4829838;29;19953;-67
2022/03/28 10:31:06;;;;;;;;;;;;;;;18.73;44.91;99253.44;4829589;29;19952;-67
2022/03/28 10:33:54;;;;;;;;;;;;;;;18.96;43.88;99252.66;4828521;29;19955;-66
2022/03/28 10:36:27;;;;;;;;;;;;;;;18.93;43.09;99242.19;4828890;29;19959;-66
2022/03/28 10:39:15;;;;;;;;;;;;;;;19.07;41.77;99238.31;4841615;29;19979;-67
2022/03/28 10:41:42;;;;;;;;;;;;;;;19.12;42.25;99240.66;4835080;29;19952;-66
2022/03/28 10:44:09;;;;;;;;;;;;;;;19.22;42.44;99234.75;4846848;29;19957;-66
2022/03/28 10:46:37;;;;;;;;;;;;;;;19.29;44.51;99225.34;4847689;29;19969;-66
2022/03/28 10:49:06;;;;;;;;;;;;;;;19.20;43.70;99230.75;4846966;29;19950;-66
2022/03/28 10:51:34;;;;;;;;;;;;;;;19.01;43.52;99221.78;4834464;29;19953;-67
2022/03/28 10:54:05;;;;;;;;;;;;;;;19.09;42.89;99213.97;4811543;29;19953;-67
2022/03/28 10:56:33;;;;;;;;;;;;;;;19.27;43.27;99213.63;4811063;29;19960;-66
2022/03/28 10:59:08;;;;;;;;;;;;;;;19.13;44.37;99214.69;4811210;29;19946;-66
2022/03/28 11:01:36;;;;;;;;;;;;;;;18.89;42.39;99213.91;4810986;29;19942;-66
2022/03/28 11:04:12;;;;;;;;;;;;;;;18.67;38.98;99209.03;4810951;29;19943;-66
2022/03/28 11:06:59;;;;;;;;;;;;;;;18.90;39.79;99204.16;4810863;29;19966;-66
2022/03/28 11:09:45;;;;;;;;;;;;;;;18.73;43.36;99193.16;4821747;29;20382;-66
2022/03/28 11:12:32;;;;;;;;;;;;;;;18.86;41.21;99202.63;4822975;29;19952;-66
2022/03/28 11:15:16;;;;;;;;;;;;;;;18.82;42.88;99185.69;4811045;29;19949;-66
2022/03/28 11:17:55;;;;;;;;;;;;;;;18.87;38.14;99192.91;4810666;29;19950;-66
2022/03/28 11:20:23;;;;;;;;;;;;;;;18.78;35.64;99184.94;4810792;29;19947;-66
2022/03/28 11:22:50;;;;;;;;;;;;;;;18.87;34.68;99193.72;4810166;29;19948;-66
2022/03/28 11:25:27;;;;;;;;;;;;;;;18.82;33.89;99187.72;4810318;29;19967;-66
2022/03/28 11:28:01;;;;;;;;;;;;;;;18.62;36.08;99179.16;4810725;29;19955;-66
2022/03/28 11:30:28;;;;;;;;;;;;;;;18.75;35.89;99173.69;4815417;29;19945;-66
2022/03/28 11:32:56;;;;;;;;;;;;;;;18.74;37.82;99167.22;4809010;29;19947;-66
2022/03/28 11:35:23;;;;;;;;;;;;;;;18.69;36.40;99167.72;4810349;29;19952;-66
2022/03/28 11:37:51;;;;;;;;;;;;;;;18.85;35.60;99159.31;4817248;29;19956;-67
2022/03/28 11:40:19;;;;;;;;;;;;;;;18.93;35.82;99155.13;4817630;29;20393;-66
2022/03/28 11:42:49;;;;;;;;;;;;;;;18.98;35.80;99143.28;4838436;29;20372;-67
2022/03/28 11:45:18;;;;;;;;;;;;;;;18.89;35.44;99145.09;4843971;29;19966;-66
2022/03/28 11:47:50;;;;;;;;;;;;;;;19.14;32.69;99139.75;4860101;29;19966;-66
2022/03/28 11:50:17;;;;;;;;;;;;;;;18.69;32.78;99136.53;4864182;29;19947;-66
2022/03/28 11:52:50;;;;;;;;;;;;;;;18.73;33.20;99125.16;4839477;29;19976;-66
2022/03/28 11:55:19;;;;;;;;;;;;;;;18.81;32.79;99120.94;4828579;29;19949;-66
2022/03/28 12:00:35;;;;;;;;;;;;;;;18.84;31.68;99125.75;4839948;29;20256;-66
2022/03/28 12:03:04;;;;;;;;;;;;;;;18.79;32.43;99115.72;4846116;29;19951;-66
2022/03/28 12:05:39;;;;;;;;;;;;;;;19.01;33.45;99114.06;4845550;29;19981;-66
2022/03/28 12:08:13;;;;;;;;;;;;;;;18.98;32.92;99114.94;4837101;29;19958;-66
2022/03/28 12:10:42;;;;;;;;;;;;;;;18.44;31.45;99104.22;4839682;29;19949;-66
2022/03/28 12:13:10;;;;;;;;;;;;;;;18.58;33.57;99112.47;4832102;29;19949;-66
2022/03/28 12:15:39;;;;;;;;;;;;;;;18.73;31.11;99108.16;4833750;29;19948;-66
2022/03/28 12:18:08;;;;;;;;;;;;;;;18.66;32.75;99092.06;4832900;29;20363;-66
2022/03/28 12:20:40;;;;;;;;;;;;;;;18.53;32.24;99101.63;4833198;29;19946;-66
2022/03/28 12:23:08;;;;;;;;;;;;;;;18.81;33.59;99090.56;4830445;29;19947;-66
2022/03/28 12:25:36;;;;;;;;;;;;;;;18.95;30.40;99087.47;4811793;29;19969;-66
2022/03/28 12:28:05;;;;;;;;;;;;;;;19.02;29.68;99090.16;4826502;29;20339;-66
2022/03/28 12:30:35;;;;;;;;;;;;;;;19.00;31.00;99086.94;4828722;29;19953;-66
2022/03/28 12:33:06;;;;;;;;;;;;;;;19.13;32.82;99069.28;4830793;29;19948;-66
2022/03/28 12:35:44;;;;;;;;;;;;;;;19.10;32.05;99068.13;4830909;29;20247;-66
2022/03/28 12:38:15;;;;;;;;;;;;;;;19.19;31.18;99059.06;4831567;29;19951;-66
2022/03/28 12:40:46;;;;;;;;;;;;;;;19.02;29.52;99046.84;4833072;29;20387;-66
2022/03/28 12:43:17;;;;;;;;;;;;;;;18.75;28.05;99052.66;4836799;29;19950;-66
2022/03/28 12:45:44;;;;;;;;;;;;;;;18.68;28.31;99041.44;4834452;29;19968;-66
2022/03/28 12:48:12;;;;;;;;;;;;;;;18.60;28.54;99048.50;4830203;29;19947;-66
2022/03/28 12:50:57;;;;;;;;;;;;;;;18.94;27.10;99029.19;4830244;29;20248;-66
2022/03/28 12:53:26;;;;;;;;;;;;;;;18.83;29.60;99037.09;4829888;29;20209;-66
2022/03/28 12:55:53;;;;;;;;;;;;;;;18.72;29.70;99030.84;4831177;29;19958;-66
2022/03/28 12:58:30;;;;;;;;;;;;;;;18.83;31.13;99030.63;4831039;29;19949;-66
2022/03/28 13:01:02;;;;;;;;;;;;;;;18.69;29.57;99023.22;4835317;29;19954;-66
2022/03/28 13:03:32;;;;;;;;;;;;;;;18.66;29.88;99026.91;4837697;29;19956;-66
2022/03/28 13:06:07;;;;;;;;;;;;;;;18.60;30.55;99014.50;4839693;29;20267;-66
2022/03/28 13:08:35;;;;;;;;;;;;;;;18.77;30.79;99006.88;4830179;29;19952;-66
2022/03/28 13:11:10;;;;;;;;;;;;;;;18.94;29.57;98998.00;4834467;29;19951;-66
2022/03/28 13:13:38;;;;;;;;;;;;;;;18.92;29.50;99002.53;4835577;29;19957;-66
2022/03/28 13:16:07;;;;;;;;;;;;;;;18.85;28.39;98994.94;4835897;29;20369;-66
2022/03/28 13:18:35;;;;;;;;;;;;;;;18.87;29.27;98991.69;4841408;29;19953;-66
2022/03/28 13:21:03;;;;;;;;;;;;;;;18.79;28.65;98985.38;4837608;29;19952;-66
2022/03/28 13:23:32;;;;;;;;;;;;;;;18.87;29.46;98984.00;4840665;29;19977;-66
2022/03/28 13:26:13;;;;;;;;;;;;;;;18.86;29.81;98981.59;4842869;29;19968;-66
2022/03/28 13:28:43;;;;;;;;;;;;;;;18.76;28.47;98974.09;4829000;29;19957;-66
2022/03/28 13:31:12;;;;;;;;;;;;;;;18.68;28.50;98981.94;4828415;29;20399;-66
2022/03/28 13:33:39;;;;;;;;;;;;;;;18.76;28.72;98966.41;4841181;29;19950;-66
2022/03/28 13:36:07;;;;;;;;;;;;;;;18.74;29.45;98957.53;4832019;29;20352;-66
2022/03/28 13:38:39;;;;;;;;;;;;;;;18.86;29.08;98956.88;4835429;29;19952;-66
2022/03/28 13:41:06;;;;;;;;;;;;;;;19.00;29.13;98950.09;4832721;29;19970;-66
2022/03/28 13:43:33;;;;;;;;;;;;;;;19.20;29.46;98955.72;4841973;29;19948;-66
2022/03/28 13:46:03;;;;;;;;;;;;;;;19.13;28.30;98953.06;4844929;29;20255;-66
2022/03/28 13:48:30;;;;;;;;;;;;;;;18.88;29.43;98948.72;4835517;29;19954;-66
2022/03/28 13:50:58;;;;;;;;;;;;;;;18.77;29.18;98930.38;4842115;29;19949;-66
2022/03/28 13:53:46;;;;;;;;;;;;;;;18.87;29.96;98937.84;4837186;29;19954;-66
2022/03/28 13:56:13;;;;;;;;;;;;;;;18.90;29.68;98945.47;4834713;29;19947;-66
2022/03/28 13:58:41;;;;;;;;;;;;;;;18.88;29.01;98945.09;4839026;29;19976;-66
2022/03/28 14:01:08;;;;;;;;;;;;;;;18.86;29.50;98922.88;4844877;29;20246;-66
2022/03/28 14:03:37;;;;;;;;;;;;;;;18.92;30.02;98926.81;4841937;29;19951;-66
2022/03/28 14:06:04;;;;;;;;;;;;;;;19.11;29.21;98925.16;4831309;29;20247;-66
2022/03/28 14:08:35;;;;;;;;;;;;;;;18.87;29.46;98918.81;4832192;29;20336;-66
2022/03/28 14:11:03;;;;;;;;;;;;;;;18.76;29.59;98920.25;4834897;29;19958;-66
2022/03/28 14:13:31;;;;;;;;;;;;;;;18.99;28.64;98914.50;4837038;29;19949;-66
2022/03/28 14:15:58;;;;;;;;;;;;;;;19.01;29.78;98918.50;4842446;29;20376;-66
2022/03/28 14:18:26;;;;;;;;;;;;;;;18.91;29.59;98913.84;4836557;29;19950;-66
2022/03/28 14:20:53;;;;;;;;;;;;;;;18.85;30.26;98904.25;4829437;29;19948;-66
2022/03/28 14:23:24;;;;;;;;;;;;;;;18.81;30.14;98912.06;4838518;29;19947;-66
2022/03/28 14:25:51;;;;;;;;;;;;;;;18.86;29.68;98897.38;4840126;29;19959;-66
2022/03/28 14:28:19;;;;;;;;;;;;;;;18.83;30.38;98895.41;4835133;29;19977;-67
2022/03/28 14:30:46;;;;;;;;;;;;;;;18.80;29.11;98901.97;4835446;29;19956;-66
2022/03/28 14:33:14;;;;;;;;;;;;;;;18.65;29.07;98891.38;4840051;29;20249;-66
2022/03/28 14:35:41;;;;;;;;;;;;;;;18.66;28.93;98896.59;4820846;29;19946;-66
2022/03/28 14:38:09;;;;;;;;;;;;;;;18.61;29.20;98888.59;4837063;29;19944;-66
2022/03/28 14:40:38;;;;;;;;;;;;;;;18.59;29.75;98881.78;4835221;29;19989;-66
2022/03/28 14:43:06;;;;;;;;;;;;;;;18.68;30.48;98871.44;4846115;29;19974;-67
2022/03/28 14:46:59;;;;;;;;;;;;;;;18.58;30.03;98871.72;4829224;29;19955;-66
2022/03/28 14:48:21;;;;;;;;;;;;;;;18.67;30.82;98864.22;4834765;29;19970;-66
2022/03/28 14:50:48;;;;;;;;;;;;;;;18.62;30.70;98861.88;4833262;29;20366;-66
2022/03/28 14:53:16;;;;;;;;;;;;;;;18.60;31.04;98853.03;4838447;29;20403;-66
2022/03/28 14:55:44;;;;;;;;;;;;;;;18.42;30.33;98852.59;4840270;29;19951;-66
2022/03/28 14:58:11;;;;;;;;;;;;;;;18.33;30.36;98858.03;4835347;29;19952;-66
2022/03/28 15:00:40;;;;;;;;;;;;;;;18.35;30.66;98849.91;4835247;29;19951;-66
2022/03/28 15:03:07;;;;;;;;;;;;;;;18.44;31.39;98847.28;4839043;29;19958;-66
2022/03/28 15:05:36;;;;;;;;;;;;;;;18.53;30.68;98846.72;4832134;29;19945;-66
2022/03/28 15:08:04;;;;;;;;;;;;;;;18.41;30.77;98847.38;4844420;29;19962;-66
2022/03/28 15:10:32;;;;;;;;;;;;;;;18.58;29.79;98849.84;4844273;29;19957;-66
2022/03/28 15:13:00;;;;;;;;;;;;;;;18.61;29.38;98845.34;4839019;29;19946;-66
2022/03/28 15:15:27;;;;;;;;;;;;;;;18.50;29.49;98850.44;4833992;29;19953;-66
2022/03/28 15:17:55;;;;;;;;;;;;;;;18.63;29.58;98843.66;4828416;29;19957;-66
2022/03/28 15:20:23;;;;;;;;;;;;;;;18.52;29.97;98843.09;4828307;29;19958;-66
2022/03/28 15:22:51;;;;;;;;;;;;;;;18.40;31.16;98838.06;4843498;29;19951;-66
2022/03/28 15:25:18;;;;;;;;;;;;;;;18.23;31.95;98825.09;4855748;29;19963;-66
2022/03/28 15:27:46;;;;;;;;;;;;;;;18.17;32.04;98841.78;4852550;29;19967;-66
2022/03/28 15:30:13;;;;;;;;;;;;;;;18.18;32.21;98836.91;4857584;29;20246;-66
2022/03/28 15:32:41;;;;;;;;;;;;;;;18.22;32.45;98832.78;4825128;29;19948;-66
2022/03/28 15:35:08;;;;;;;;;;;;;;;18.21;31.72;98825.53;4846419;29;19957;-66
2022/03/28 15:37:36;;;;;;;;;;;;;;;18.27;31.32;98822.97;4846702;29;19957;-66
2022/03/28 15:40:04;;;;;;;;;;;;;;;18.16;31.82;98828.06;4854739;29;19977;-66
2022/03/28 15:42:32;;;;;;;;;;;;;;;18.27;31.04;98822.97;4845690;29;20206;-66
2022/03/28 15:44:59;;;;;;;;;;;;;;;18.08;31.09;98821.75;4845277;29;19947;-66
2022/03/28 15:47:27;;;;;;;;;;;;;;;18.07;31.15;98813.72;4815374;29;19970;-66
2022/03/28 15:49:55;;;;;;;;;;;;;;;18.09;31.29;98799.91;4840148;29;19947;-66
2022/03/28 15:52:23;;;;;;;;;;;;;;;18.18;31.24;98800.91;4830008;29;19950;-66
2022/03/28 15:54:51;;;;;;;;;;;;;;;18.08;31.40;98798.31;4839350;29;19965;-67
2022/03/28 15:57:20;;;;;;;;;;;;;;;18.05;31.80;98799.97;4833648;29;19949;-66
2022/03/28 15:59:48;;;;;;;;;;;;;;;18.03;30.31;98802.44;4836554;29;20352;-66
2022/03/28 16:02:15;;;;;;;;;;;;;;;18.03;30.39;98795.97;4835917;29;19956;-66
2022/03/28 16:04:42;;;;;;;;;;;;;;;18.04;30.10;98789.09;4835962;29;19957;-66
2022/03/28 16:07:10;;;;;;;;;;;;;;;18.05;30.06;98788.66;4835463;29;19950;-66
2022/03/28 16:09:37;;;;;;;;;;;;;;;18.05;29.33;98783.00;4829102;29;19954;-66
2022/03/28 16:12:05;;;;;;;;;;;;;;;18.24;30.45;98784.22;4840835;29;19950;-66
2022/03/28 16:14:33;;;;;;;;;;;;;;;18.10;30.82;98778.84;4829482;29;19955;-66
2022/03/28 16:17:00;;;;;;;;;;;;;;;18.08;32.31;98776.47;4839221;29;19948;-66
2022/03/28 16:19:27;;;;;;;;;;;;;;;18.09;30.75;98777.28;4843148;29;19954;-66
2022/03/28 16:21:55;;;;;;;;;;;;;;;17.98;30.79;98776.69;4851598;29;19948;-66
2022/03/28 16:24:24;;;;;;;;;;;;;;;17.96;30.89;98773.50;4838271;29;19952;-66
2022/03/28 16:26:52;;;;;;;;;;;;;;;17.98;30.68;98776.69;4840113;29;20239;-66
2022/03/28 16:29:19;;;;;;;;;;;;;;;17.93;31.15;98769.50;4839234;29;20255;-66
2022/03/28 16:31:48;;;;;;;;;;;;;;;17.73;32.06;98766.66;4839600;29;19950;-66
2022/03/28 16:34:15;;;;;;;;;;;;;;;17.86;31.23;98766.03;4837564;29;20024;-66
2022/03/28 16:36:43;;;;;;;;;;;;;;;17.73;31.23;98769.50;4835084;29;19958;-66
2022/03/28 16:39:10;;;;;;;;;;;;;;;17.65;31.41;98765.22;4834826;29;19943;-66
2022/03/28 16:41:39;;;;;;;;;;;;;;;17.65;31.51;98770.88;4828182;29;20396;-66
2022/03/28 16:44:06;;;;;;;;;;;;;;;17.60;31.35;98773.41;4829938;29;19948;-66
2022/03/28 16:46:34;;;;;;;;;;;;;;;17.58;31.80;98771.00;4846618;29;19971;-66
2022/03/28 16:49:02;;;;;;;;;;;;;;;17.55;32.03;98766.25;4835161;29;19961;-66
2022/03/28 16:51:29;;;;;;;;;;;;;;;17.44;31.91;98759.94;4827726;29;20035;-66
2022/03/28 16:53:57;;;;;;;;;;;;;;;17.42;32.32;98753.13;4828258;29;19955;-66
2022/03/28 16:56:25;;;;;;;;;;;;;;;17.29;32.75;98758.59;4831455;29;19952;-66
2022/03/28 16:58:53;;;;;;;;;;;;;;;17.33;32.64;98758.56;4833595;29;19949;-66
2022/03/28 17:01:20;;;;;;;;;;;;;;;17.31;32.68;98756.13;4833239;29;19977;-66
2022/03/28 17:03:48;;;;;;;;;;;;;;;17.23;32.99;98751.88;4840472;29;19957;-66
2022/03/28 17:06:16;;;;;;;;;;;;;;;17.13;33.01;98741.53;4844697;29;19948;-66
2022/03/28 17:08:44;;;;;;;;;;;;;;;17.04;33.59;98752.63;4839722;29;19965;-66
2022/03/28 17:11:13;;;;;;;;;;;;;;;16.94;33.77;98742.28;4831875;29;19950;-66
2022/03/28 17:13:40;;;;;;;;;;;;;;;16.82;34.10;98745.72;4849038;29;19949;-66
2022/03/28 17:16:08;;;;;;;;;;;;;;;16.74;34.20;98747.88;4829766;29;19954;-66
2022/03/28 17:18:36;;;;;;;;;;;;;;;16.72;34.76;98729.75;4836602;29;19955;-66
2022/03/28 17:21:04;;;;;;;;;;;;;;;16.64;34.34;98733.91;4834103;29;19953;-66
2022/03/28 17:23:32;;;;;;;;;;;;;;;16.60;34.75;98733.19;4846541;29;20029;-66
2022/03/28 17:26:00;;;;;;;;;;;;;;;16.43;35.31;98727.34;4832318;29;19949;-66
2022/03/28 17:28:28;;;;;;;;;;;;;;;16.35;35.44;98728.69;4837590;29;19964;-66
2022/03/28 17:30:55;;;;;;;;;;;;;;;16.29;35.86;98723.94;4840430;29;19947;-66
2022/03/28 17:33:22;;;;;;;;;;;;;;;16.21;36.00;98723.22;4856946;29;19958;-66
2022/03/28 17:35:50;;;;;;;;;;;;;;;16.25;36.21;98723.19;4859694;29;19958;-66
2022/03/28 17:38:17;;;;;;;;;;;;;;;16.16;36.70;98723.69;4839713;29;19963;-66
2022/03/28 17:40:45;;;;;;;;;;;;;;;16.09;37.02;98714.56;4833531;29;20305;-66
2022/03/28 17:43:12;;;;;;;;;;;;;;;16.04;37.47;98721.47;4847028;29;20303;-66
2022/03/28 17:45:40;;;;;;;;;;;;;;;16.00;37.70;98715.09;4860524;29;19948;-66
2022/03/28 17:48:08;;;;;;;;;;;;;;;15.92;38.46;98718.44;4834173;29;19971;-66
2022/03/28 17:50:38;;;;;;;;;;;;;;;15.91;38.12;98720.44;4836335;29;19952;-68
2022/03/28 17:53:06;;;;;;;;;;;;;;;15.85;38.51;98719.31;4831473;29;19945;-68
2022/03/28 17:55:36;;;;;;;;;;;;;;;15.80;38.40;98725.41;4838311;29;19946;-68
2022/03/28 17:58:04;;;;;;;;;;;;;;;15.71;38.83;98723.13;4848333;29;19950;-68
2022/03/28 18:00:32;;;;;;;;;;;;;;;15.71;38.21;98723.13;4835452;29;19951;-68
2022/03/28 18:03:01;;;;;;;;;;;;;;;15.80;37.77;98716.97;4836219;29;19958;-68
2022/03/28 18:05:29;;;;;;;;;;;;;;;15.76;37.24;98719.03;4829706;29;19959;-68
2022/03/28 18:07:56;;;;;;;;;;;;;;;15.74;37.99;98721.47;4835053;29;19958;-68
2022/03/28 18:10:24;;;;;;;;;;;;;;;15.77;37.15;98721.41;4832898;29;19957;-68
2022/03/28 18:12:51;;;;;;;;;;;;;;;15.77;37.34;98720.66;4837447;29;19957;-68
2022/03/28 18:15:19;;;;;;;;;;;;;;;15.77;37.39;98726.28;4837658;29;19960;-68
2022/03/28 18:17:47;;;;;;;;;;;;;;;15.68;37.27;98725.97;4838956;29;20344;-68
2022/03/28 18:20:14;;;;;;;;;;;;;;;15.72;37.30;98735.97;4845853;29;20372;-68
2022/03/28 18:22:43;;;;;;;;;;;;;;;15.62;37.49;98727.69;4835341;29;19956;-68
2022/03/28 18:25:12;;;;;;;;;;;;;;;15.64;37.64;98725.22;4834836;29;19952;-68
2022/03/28 18:27:40;;;;;;;;;;;;;;;15.66;37.21;98731.25;4829341;29;19946;-68
2022/03/28 18:30:08;;;;;;;;;;;;;;;15.66;37.30;98732.03;4828608;29;19975;-68
2022/03/28 18:32:36;;;;;;;;;;;;;;;15.56;37.18;98729.34;4829463;29;19950;-68
2022/03/28 18:35:06;;;;;;;;;;;;;;;15.55;36.84;98727.75;4831164;29;19958;-69
2022/03/28 18:37:34;;;;;;;;;;;;;;;15.52;37.24;98731.41;4831329;29;19958;-67
2022/03/28 18:40:01;;;;;;;;;;;;;;;15.50;37.26;98736.69;4834351;29;19975;-66
2022/03/28 18:42:29;;;;;;;;;;;;;;;15.49;36.74;98743.53;4835918;29;19956;-66
2022/03/28 18:44:56;;;;;;;;;;;;;;;15.46;36.81;98741.53;4836278;29;19952;-68
2022/03/28 18:47:24;;;;;;;;;;;;;;;15.50;36.63;98737.44;4837525;29;20393;-68
2022/03/28 18:49:51;;;;;;;;;;;;;;;15.48;36.76;98739.13;4836374;29;19972;-66
2022/03/28 18:52:21;;;;;;;;;;;;;;;15.43;37.13;98734.69;4838638;29;19956;-67
2022/03/28 18:54:48;;;;;;;;;;;;;;;15.35;37.04;98744.47;4835524;29;19950;-65
2022/03/28 18:57:16;;;;;;;;;;;;;;;15.34;36.68;98734.41;4832808;29;19956;-64
2022/03/28 18:59:43;;;;;;;;;;;;;;;15.37;36.83;98738.41;4834560;29;19964;-64
2022/03/28 19:02:11;;;;;;;;;;;;;;;15.39;36.75;98739.56;4835659;29;19953;-67
2022/03/28 19:04:38;;;;;;;;;;;;;;;15.34;37.28;98733.59;4833118;29;19944;-65
2022/03/28 19:07:06;;;;;;;;;;;;;;;15.30;37.00;98732.84;4828943;29;19953;-65
2022/03/28 19:09:33;;;;;;;;;;;;;;;15.32;37.21;98736.03;4838523;29;19977;-64
2022/03/28 19:12:00;;;;;;;;;;;;;;;15.25;36.90;98736.91;4828172;29;19955;-64
2022/03/28 19:14:29;;;;;;;;;;;;;;;15.14;37.97;98728.56;4833942;29;19953;-65
2022/03/28 19:16:56;;;;;;;;;;;;;;;15.20;36.99;98743.00;4835860;29;20339;-64
2022/03/28 19:19:24;;;;;;;;;;;;;;;15.11;37.17;98729.41;4833810;29;19960;-65
2022/03/28 19:21:52;;;;;;;;;;;;;;;15.19;36.94;98729.31;4836418;29;19952;-65
2022/03/28 19:24:19;;;;;;;;;;;;;;;15.09;37.34;98726.19;4836822;29;20045;-65
2022/03/28 19:26:46;;;;;;;;;;;;;;;15.01;37.68;98733.09;4834986;29;19955;-66
2022/03/28 19:29:14;;;;;;;;;;;;;;;14.92;37.89;98729.19;4831609;29;19972;-66
